Flight Track Log - Related Links

Times and Time Zones

All times are in EDT time to prevent confusion due to time zone crossing. See the N734M flight status page for this flight to view local times or setup timezone preferences in your user account.

Time Position Orientation Groundspeed Altitude Reporting Facility
EDT Latitude Longitude Course Direction KTS MPH feet Rate Location/Type
Wed 19:49:17 43.6475 -96.7839 329° Northwest 90 104 3,600  Level Minneapolis Center
Wed 19:50:18 43.6747 -96.8033 333° Northwest 92 106 4,300 585 Climbing Minneapolis Center
Wed 19:51:20 43.6958 -96.8219 327° Northwest 91 105 4,800 484 Climbing Minneapolis Center
Wed 19:52:22 43.7181 -96.8411 328° Northwest 92 106 5,300 485 Climbing Minneapolis Center
Wed 19:53:00 43.7378 -96.8537 329° Northwest  Level FlightAware
Wed 19:53:36 43.7397 -96.8603 327° Northwest 93 107 5,900  Level Minneapolis Center
Wed 19:54:00 43.7654 -96.8770 329° Northwest  Level FlightAware
Wed 19:54:38 43.7686 -96.8853 328° Northwest 96 110 6,000  Level Minneapolis Center
Wed 19:55:39 43.7939 -96.9067 329° Northwest 107 123 6,000  Level Minneapolis Center
Wed 19:56:41 43.8394 -96.9464 328° Northwest 127 146 6,000  Level Minneapolis Center
Wed 19:57:55 43.8717 -96.9739 328° Northwest 132 152 6,000  Level Minneapolis Center
Wed 19:58:57 43.9094 -97.0075 327° Northwest 134 154 6,000  Level Minneapolis Center
Wed 19:59:59 43.9411 -97.0358 327° Northwest 135 155 6,000  Level Minneapolis Center
Wed 20:01:01 43.9733 -97.0639 328° Northwest 135 155 6,000  Level Minneapolis Center
Wed 20:02:03 44.0047 -97.0911 328° Northwest 134 154 6,000  Level Minneapolis Center
Wed 20:03:05 44.0356 -97.1183 328° Northwest 134 154 6,000  Level Minneapolis Center
Wed 20:04:06 44.0694 -97.1486 327° Northwest 128 147 6,000  Level Minneapolis Center
Wed 20:05:20 44.0972 -97.1731 328° Northwest 123 142 6,000  Level Minneapolis Center
Wed 20:06:23 44.1322 -97.2039 328° Northwest 123 142 6,000  Level Minneapolis Center
Wed 20:07:24 44.1606 -97.2289 328° Northwest 122 140 6,000  Level Minneapolis Center
Wed 20:08:26 44.1883 -97.2533 328° Northwest 121 139 6,000  Level Minneapolis Center
Wed 20:09:28 44.2164 -97.2781 328° Northwest 120 138 6,000  Level Minneapolis Center
Wed 20:10:30 44.2508 -97.3086 328° Northwest 121 139 6,000  Level Minneapolis Center
Wed 20:11:32 44.2794 -97.3336 328° Northwest 121 139 6,000  Level Minneapolis Center
Wed 20:12:34 44.3067 -97.3589 326° Northwest 120 138 6,000  Level Minneapolis Center
Wed 20:13:36 44.3350 -97.3825 329° Northwest 119 137 6,000  Level Minneapolis Center
Wed 20:14:49 44.3628 -97.4083 326° Northwest 119 137 6,000  Level Minneapolis Center
Wed 20:15:52 44.3964 -97.4375 328° Northwest 119 137 6,000  Level Minneapolis Center
Wed 20:16:54 44.4239 -97.4614 328° Northwest 119 137 6,000  Level Minneapolis Center
Wed 20:17:56 44.4572 -97.4911 328° Northwest 119 137 6,000  Level Minneapolis Center
Wed 20:19:10 44.4850 -97.5158 328° Northwest 118 136 6,000  Level Minneapolis Center
Wed 20:20:24 44.5183 -97.5464 327° Northwest 119 137 6,000  Level Minneapolis Center
Wed 20:21:26 44.5511 -97.5775 326° Northwest 119 137 6,000  Level Minneapolis Center
Wed 20:22:28 44.5808 -97.6031 329° Northwest 121 139 6,000  Level Minneapolis Center
Wed 20:23:30 44.6164 -97.6342 328° Northwest 124 143 6,000  Level Minneapolis Center
Wed 20:24:32 44.6458 -97.6603 328° Northwest 125 144 6,000  Level Minneapolis Center
Wed 20:25:34 44.6744 -97.6872 326° Northwest 125 144 6,000  Level Minneapolis Center
Wed 20:26:36 44.7031 -97.7142 326° Northwest 124 143 6,000  Level Minneapolis Center
Wed 20:27:38 44.7344 -97.7417 328° Northwest 127 146 6,000  Level Minneapolis Center
Wed 20:28:40 44.7667 -97.7700 328° Northwest 131 151 6,000  Level Minneapolis Center
Wed 20:29:42 44.8042 -97.8061 326° Northwest 135 155 6,000  Level Minneapolis Center
Wed 20:30:44 44.8319 -97.8275 331° Northwest 137 158 6,000  Level Minneapolis Center
Wed 20:31:46 44.8661 -97.8608 325° Northwest 133 153 6,000  Level Minneapolis Center
Wed 20:32:48 44.8986 -97.8881 329° Northwest 133 153 6,000  Level Minneapolis Center
Wed 20:33:50 44.9297 -97.9142 329° Northwest 131 151 6,000  Level Minneapolis Center
Wed 20:34:52 44.9569 -97.9419 324° Northwest 127 146 6,000  Level Minneapolis Center
Wed 20:36:06 44.9881 -97.9708 327° Northwest 131 151 6,000  Level Minneapolis Center
Wed 20:37:09 45.0292 -98.0064 329° Northwest 128 147 6,000 -48 Level Minneapolis Center
Wed 20:38:11 45.0583 -98.0336 327° Northwest 126 145 5,900 -48 Descending Minneapolis Center
Wed 20:39:13 45.0878 -98.0606 327° Northwest 126 145 5,900  Level Minneapolis Center
Wed 20:40:15 45.1161 -98.0856 328° Northwest 124 143 5,900  Level Minneapolis Center
Wed 20:41:17 45.1444 -98.1122 326° Northwest 123 142 5,900  Level Minneapolis Center
Wed 20:42:19 45.1811 -98.1408 331° Northwest 123 142 5,900  Level Minneapolis Center
Wed 20:43:21 45.2092 -98.1692 325° Northwest 124 143 5,900  Level Minneapolis Center
Wed 20:44:23 45.2350 -98.1972 323° Northwest 122 140 5,900  Level Minneapolis Center
Wed 20:45:25 45.2625 -98.2222 327° Northwest 120 138 5,900  Level Minneapolis Center
Wed 20:46:27 45.2892 -98.2489 325° Northwest 119 137 5,900  Level Minneapolis Center
Wed 20:47:29 45.3242 -98.2803 328° Northwest 121 139 5,900 44 Level Minneapolis Center
Wed 20:48:43 45.3519 -98.3047 328° Northwest 120 138 6,000 44 Climbing Minneapolis Center
Wed 20:49:46 45.3844 -98.3347 327° Northwest 118 136 6,000  Level Minneapolis Center
Wed 20:51:00 45.4128 -98.3619 326° Northwest 119 137 6,000  Level Minneapolis Center
Wed 20:52:02 45.4419 -98.4017 316° Northwest 121 139 6,000  Level Minneapolis Center
Wed 20:53:05 45.4631 -98.4394 309° West 122 140 6,000  Level Minneapolis Center
Wed 20:54:07 45.4875 -98.4831 309° West 120 138 6,000  Level Minneapolis Center
Wed 20:55:09 45.5078 -98.5111 316° Northwest 120 138 6,000  Level Minneapolis Center
Wed 20:56:11 45.5367 -98.5583 311° West 122 140 6,000  Level Minneapolis Center
Wed 20:57:13 45.5581 -98.5964 309° West 124 143 6,000  Level Minneapolis Center
Wed 20:58:15 45.5794 -98.6339 309° West 126 145 6,000  Level Minneapolis Center
Wed 20:59:17 45.6031 -98.6717 312° West 127 146 6,000  Level Minneapolis Center
Wed 21:00:19 45.6308 -98.7194 310° West 128 147 6,000  Level Minneapolis Center
Wed 21:01:21 45.6536 -98.7547 313° West 126 145 6,000  Level Minneapolis Center
Wed 21:02:23 45.6758 -98.7928 310° West 125 144 6,000  Level Minneapolis Center
Wed 21:03:25 45.6989 -98.8311 311° West 126 145 6,000  Level Minneapolis Center
Wed 21:04:27 45.7208 -98.8681 310° West 125 144 6,000  Level Minneapolis Center
Wed 21:05:29 45.7439 -98.9067 311° West 126 145 6,000  Level Minneapolis Center
Wed 21:06:31 45.7722 -98.9536 311° West 127 146 6,000  Level Minneapolis Center
Wed 21:07:33 45.7944 -98.9908 311° West 126 145 6,000  Level Minneapolis Center
Wed 21:08:35 45.8158 -99.0289 309° West 125 144 6,000  Level Minneapolis Center
Wed 21:09:37 45.8381 -99.0667 310° West 124 143 6,000  Level Minneapolis Center
Wed 21:10:40 45.8611 -99.1036 312° West 124 143 6,000  Level Minneapolis Center
Wed 21:11:41 45.8786 -99.1339 310° West 124 143 6,000 -48 Level Minneapolis Center
Wed 21:12:44 45.9106 -99.1875 311° West 125 144 5,900  Descending Minneapolis Center
Wed 21:13:46 45.9331 -99.2256 310° West 126 145 6,000 48 Climbing Minneapolis Center
Wed 21:14:48 45.9558 -99.2653 310° West 126 145 6,000 -48 Level Minneapolis Center
Wed 21:15:50 45.9792 -99.3050 310° West 128 147 5,900  Descending Minneapolis Center
Wed 21:16:52 46.0011 -99.3439 309° West 128 147 6,000 48 Climbing Minneapolis Center
Wed 21:17:54 46.0244 -99.3833 310° West 128 147 6,000 49 Level Minneapolis Center
Wed 21:18:55 46.0536 -99.4311 311° West 130 150 6,100 49 Climbing Minneapolis Center
Wed 21:19:57 46.0764 -99.4717 309° West 130 150 6,100  Level Minneapolis Center
Wed 21:20:59 46.0986 -99.5100 310° West 129 148 6,100  Level Minneapolis Center
Wed 21:22:01 46.1208 -99.5469 311° West 127 146 6,100  Level Minneapolis Center
Wed 21:23:03 46.1444 -99.5861 311° West 127 146 6,100  Level Minneapolis Center
Wed 21:24:05 46.1675 -99.6269 309° West 128 147 6,100  Level Minneapolis Center
Wed 21:25:06 46.1872 -99.6617 309° West 131 151 6,100  Level Minneapolis Center
Wed 21:26:08 46.2192 -99.7164 310° West 131 151 6,100  Level Minneapolis Center
Wed 21:27:10 46.2369 -99.7481 309° West 130 150 6,100  Level Minneapolis Center
Wed 21:28:12 46.2658 -99.7972 310° West 131 151 6,100  Level Minneapolis Center
Wed 21:29:25 46.2908 -99.8383 311° West 130 150 6,100  Level Minneapolis Center
Wed 21:30:27 46.3192 -99.8892 309° West 130 150 6,100  Level Minneapolis Center
Wed 21:31:29 46.3433 -99.9292 311° West 130 150 6,100  Level Minneapolis Center
Wed 21:32:31 46.3658 -99.9694 309° West 127 146 6,100  Level Minneapolis Center
Wed 21:33:32 46.3892 -100.0100 310° West 129 148 6,100  Level Minneapolis Center
Wed 21:34:46 46.4183 -100.0594 311° West 129 148 6,100  Level Minneapolis Center
Wed 21:35:48 46.4414 -100.0997 310° West 129 148 6,100  Level Minneapolis Center
Wed 21:36:49 46.4647 -100.1414 309° West 131 151 6,100 -49 Level Minneapolis Center
Wed 21:37:51 46.4839 -100.1750 310° West 131 151 6,000 -26 Descending Minneapolis Center
Wed 21:39:00 46.5103 -100.2181 312° West  Level FlightAware
Wed 21:40:43 46.5331 -100.3142 300° West 100 115 6,000  Level Minneapolis Center
Wed 21:41:45 46.5508 -100.3622 298° West 130 150 6,000 -341 Level Minneapolis Center
Wed 21:42:46 46.5728 -100.4192 299° West 145 167 5,300 -689 Descending Minneapolis Center
Wed 21:43:47 46.5886 -100.4722 293° West 142 163 4,600 -683 Descending Minneapolis Center
Wed 21:44:49 46.6017 -100.5258 290° West 139 160 3,900 -537 Descending Minneapolis Center
Wed 21:45:50 46.6297 -100.5575 322° Northwest 125 144 3,500 -195 Descending Minneapolis Center
Wed 21:46:00 46.6464 -100.5076 300° West  Level FlightAware
Wed 21:46:52 46.6511 -100.5864 317° Northwest 108 124 3,500  Level Minneapolis Center
Wed 21:47:53 46.6725 -100.6139 319° Northwest 103 119 3,600 49 Climbing Minneapolis Center
Wed 21:48:55 46.6914 -100.6392 317° Northwest 93 107 3,600 -195 Level Minneapolis Center
Wed 21:49:56 46.7089 -100.6631 317° Northwest 85 98 3,200 -390 Descending Minneapolis Center
Wed 21:50:58 46.7269 -100.6864 318° Northwest 85 98 2,800 -390 Descending Minneapolis Center
Wed 21:51:59 46.7433 -100.7078 318° Northwest 78 90 2,400 -443 Descending Minneapolis Center
Wed 21:53:00 46.7600 -100.7297 318° Northwest 79 91 1,900 -341 Descending Minneapolis Center
Wed 21:54:02 46.7744 -100.7478 319° Northwest 72 83 1,700 -98 Descending Minneapolis Center
Wed 21:55:03 46.7853 -100.7614 319° Northwest 70 81 1,700  Level Minneapolis Center

Login

Don't have an account? Register now (free) for customized features, flight alerts, and more!